sensor_id;sensor_type;location;lat;lon;timestamp;pressure;altitude;pressure_sealevel;temperature;humidity
62592;BME280;48659;41.622;2.276;2023-02-12T00:00:49;101646.10;;;4.31;56.35
62592;BME280;48659;41.622;2.276;2023-02-12T00:03:17;101642.59;;;4.49;55.21
62592;BME280;48659;41.622;2.276;2023-02-12T00:05:44;101645.78;;;4.61;55.29
62592;BME280;48659;41.622;2.276;2023-02-12T00:08:11;101645.43;;;4.60;55.41
62592;BME280;48659;41.622;2.276;2023-02-12T00:10:40;101643.54;;;4.57;55.28
62592;BME280;48659;41.622;2.276;2023-02-12T00:13:07;101642.10;;;4.37;55.48
62592;BME280;48659;41.622;2.276;2023-02-12T00:15:37;101639.84;;;4.42;55.11
62592;BME280;48659;41.622;2.276;2023-02-12T00:18:05;101641.34;;;4.30;55.50
62592;BME280;48659;41.622;2.276;2023-02-12T00:20:33;101644.99;;;4.33;55.47
62592;BME280;48659;41.622;2.276;2023-02-12T00:23:01;101640.76;;;4.32;55.22
62592;BME280;48659;41.622;2.276;2023-02-12T00:25:28;101636.48;;;4.58;54.31
62592;BME280;48659;41.622;2.276;2023-02-12T00:27:55;101636.41;;;4.16;54.56
62592;BME280;48659;41.622;2.276;2023-02-12T00:30:22;101630.78;;;4.05;55.03
62592;BME280;48659;41.622;2.276;2023-02-12T00:32:50;101627.54;;;1.80;60.88
62592;BME280;48659;41.622;2.276;2023-02-12T00:35:17;101625.89;;;3.06;58.72
62592;BME280;48659;41.622;2.276;2023-02-12T00:37:45;101625.49;;;2.11;60.26
62592;BME280;48659;41.622;2.276;2023-02-12T00:40:12;101631.26;;;1.50;62.41
62592;BME280;48659;41.622;2.276;2023-02-12T00:42:40;101622.52;;;2.66;59.93
62592;BME280;48659;41.622;2.276;2023-02-12T00:45:11;101630.14;;;0.59;64.98
62592;BME280;48659;41.622;2.276;2023-02-12T00:47:39;101620.80;;;2.62;60.03
62592;BME280;48659;41.622;2.276;2023-02-12T00:50:07;101623.58;;;1.39;62.26
62592;BME280;48659;41.622;2.276;2023-02-12T00:52:34;101621.33;;;0.85;65.43
62592;BME280;48659;41.622;2.276;2023-02-12T00:55:02;101627.75;;;-0.02;69.36
62592;BME280;48659;41.622;2.276;2023-02-12T00:57:30;101626.73;;;1.26;67.47
62592;BME280;48659;41.622;2.276;2023-02-12T00:59:57;101617.59;;;2.71;60.81
62592;BME280;48659;41.622;2.276;2023-02-12T01:02:25;101620.07;;;3.02;60.25
62592;BME280;48659;41.622;2.276;2023-02-12T01:04:53;101624.18;;;3.53;57.78
62592;BME280;48659;41.622;2.276;2023-02-12T01:07:21;101625.03;;;4.90;55.28
62592;BME280;48659;41.622;2.276;2023-02-12T01:09:49;101631.56;;;4.21;54.63
62592;BME280;48659;41.622;2.276;2023-02-12T01:12:16;101629.03;;;3.96;55.56
62592;BME280;48659;41.622;2.276;2023-02-12T01:14:43;101628.11;;;3.47;56.77
62592;BME280;48659;41.622;2.276;2023-02-12T01:17:12;101628.01;;;3.33;56.82
62592;BME280;48659;41.622;2.276;2023-02-12T01:19:39;101626.32;;;3.27;57.34
62592;BME280;48659;41.622;2.276;2023-02-12T01:22:06;101622.03;;;2.89;57.09
62592;BME280;48659;41.622;2.276;2023-02-12T01:24:33;101621.97;;;3.36;57.54
62592;BME280;48659;41.622;2.276;2023-02-12T01:27:01;101622.38;;;2.94;57.91
62592;BME280;48659;41.622;2.276;2023-02-12T01:29:28;101624.08;;;2.75;57.86
62592;BME280;48659;41.622;2.276;2023-02-12T01:31:56;101624.49;;;3.03;58.61
62592;BME280;48659;41.622;2.276;2023-02-12T01:34:23;101628.60;;;3.59;57.19
62592;BME280;48659;41.622;2.276;2023-02-12T01:36:50;101628.92;;;2.64;59.74
62592;BME280;48659;41.622;2.276;2023-02-12T01:39:17;101619.87;;;2.89;59.51
62592;BME280;48659;41.622;2.276;2023-02-12T01:41:45;101625.87;;;1.97;62.50
62592;BME280;48659;41.622;2.276;2023-02-12T01:44:15;101620.05;;;2.79;58.58
62592;BME280;48659;41.622;2.276;2023-02-12T01:46:45;101622.48;;;3.31;57.23
62592;BME280;48659;41.622;2.276;2023-02-12T01:49:16;101622.85;;;3.22;57.23
62592;BME280;48659;41.622;2.276;2023-02-12T01:51:45;101620.20;;;2.15;59.78
62592;BME280;48659;41.622;2.276;2023-02-12T01:54:16;101615.45;;;3.31;57.54
62592;BME280;48659;41.622;2.276;2023-02-12T01:56:47;101611.50;;;2.40;59.30
62592;BME280;48659;41.622;2.276;2023-02-12T01:59:15;101606.33;;;2.50;58.64
62592;BME280;48659;41.622;2.276;2023-02-12T02:01:45;101604.97;;;3.08;58.03
62592;BME280;48659;41.622;2.276;2023-02-12T02:04:16;101604.81;;;1.70;59.52
62592;BME280;48659;41.622;2.276;2023-02-12T02:06:51;101596.11;;;2.18;59.29
62592;BME280;48659;41.622;2.276;2023-02-12T02:09:21;101591.23;;;2.66;58.59
62592;BME280;48659;41.622;2.276;2023-02-12T02:11:48;101589.80;;;2.91;58.01
62592;BME280;48659;41.622;2.276;2023-02-12T02:14:16;101589.82;;;2.49;58.32
62592;BME280;48659;41.622;2.276;2023-02-12T02:16:49;101587.79;;;2.53;58.24
62592;BME280;48659;41.622;2.276;2023-02-12T02:19:34;101593.03;;;3.04;57.04
62592;BME280;48659;41.622;2.276;2023-02-12T02:22:23;101592.44;;;3.35;55.92
62592;BME280;48659;41.622;2.276;2023-02-12T02:25:14;101590.09;;;3.48;56.04
62592;BME280;48659;41.622;2.276;2023-02-12T02:28:01;101586.75;;;3.21;55.82
62592;BME280;48659;41.622;2.276;2023-02-12T02:30:39;101585.24;;;2.76;55.88
62592;BME280;48659;41.622;2.276;2023-02-12T02:33:24;101587.73;;;2.53;56.33
62592;BME280;48659;41.622;2.276;2023-02-12T02:35:59;101588.00;;;2.78;55.60
62592;BME280;48659;41.622;2.276;2023-02-12T02:38:33;101582.62;;;3.26;55.05
62592;BME280;48659;41.622;2.276;2023-02-12T02:41:18;101579.92;;;3.38;55.28
62592;BME280;48659;41.622;2.276;2023-02-12T02:43:48;101574.80;;;3.23;55.41
62592;BME280;48659;41.622;2.276;2023-02-12T02:46:21;101575.83;;;2.82;55.45
62592;BME280;48659;41.622;2.276;2023-02-12T02:48:55;101577.06;;;2.24;55.43
62592;BME280;48659;41.622;2.276;2023-02-12T02:51:29;101578.01;;;2.12;57.28
62592;BME280;48659;41.622;2.276;2023-02-12T02:54:02;101573.00;;;0.79;60.70
62592;BME280;48659;41.622;2.276;2023-02-12T02:56:34;101576.27;;;0.23;64.07
62592;BME280;48659;41.622;2.276;2023-02-12T02:59:12;101570.93;;;0.81;63.45
62592;BME280;48659;41.622;2.276;2023-02-12T03:01:43;101566.96;;;1.70;59.63
62592;BME280;48659;41.622;2.276;2023-02-12T03:04:16;101565.87;;;1.97;58.76
62592;BME280;48659;41.622;2.276;2023-02-12T03:06:50;101561.67;;;2.56;56.85
62592;BME280;48659;41.622;2.276;2023-02-12T03:09:21;101563.71;;;2.60;57.04
62592;BME280;48659;41.622;2.276;2023-02-12T03:11:50;101562.12;;;2.72;56.52
62592;BME280;48659;41.622;2.276;2023-02-12T03:14:22;101558.99;;;2.59;56.60
62592;BME280;48659;41.622;2.276;2023-02-12T03:16:56;101557.31;;;1.63;57.78
62592;BME280;48659;41.622;2.276;2023-02-12T03:19:29;101555.79;;;2.10;59.03
62592;BME280;48659;41.622;2.276;2023-02-12T03:22:01;101552.90;;;2.34;57.31
62592;BME280;48659;41.622;2.276;2023-02-12T03:24:45;101548.95;;;2.52;55.78
62592;BME280;48659;41.622;2.276;2023-02-12T03:27:18;101552.52;;;2.07;56.50
62592;BME280;48659;41.622;2.276;2023-02-12T03:29:46;101554.19;;;2.04;56.51
62592;BME280;48659;41.622;2.276;2023-02-12T03:32:26;101556.73;;;1.96;56.69
62592;BME280;48659;41.622;2.276;2023-02-12T03:35:07;101552.10;;;2.86;55.68
62592;BME280;48659;41.622;2.276;2023-02-12T03:37:39;101555.55;;;2.26;55.60
62592;BME280;48659;41.622;2.276;2023-02-12T03:40:16;101559.72;;;1.72;58.40
62592;BME280;48659;41.622;2.276;2023-02-12T03:42:56;101558.16;;;0.43;60.35
62592;BME280;48659;41.622;2.276;2023-02-12T03:45:34;101555.06;;;1.68;56.92
62592;BME280;48659;41.622;2.276;2023-02-12T03:48:08;101557.38;;;2.04;56.67
62592;BME280;48659;41.622;2.276;2023-02-12T03:50:41;101558.03;;;1.36;57.81
62592;BME280;48659;41.622;2.276;2023-02-12T03:53:11;101552.58;;;2.33;55.91
62592;BME280;48659;41.622;2.276;2023-02-12T03:55:41;101548.80;;;1.93;56.98
62592;BME280;48659;41.622;2.276;2023-02-12T03:58:15;101547.06;;;1.74;56.83
62592;BME280;48659;41.622;2.276;2023-02-12T04:00:46;101547.06;;;1.92;56.88
62592;BME280;48659;41.622;2.276;2023-02-12T04:03:13;101547.81;;;2.73;55.24
62592;BME280;48659;41.622;2.276;2023-02-12T04:05:41;101554.14;;;2.94;54.46
62592;BME280;48659;41.622;2.276;2023-02-12T04:08:10;101555.39;;;2.40;55.23
62592;BME280;48659;41.622;2.276;2023-02-12T04:10:45;101559.09;;;2.46;54.98
62592;BME280;48659;41.622;2.276;2023-02-12T04:13:22;101562.26;;;3.08;53.80
62592;BME280;48659;41.622;2.276;2023-02-12T04:16:04;101565.18;;;2.21;55.58
62592;BME280;48659;41.622;2.276;2023-02-12T04:18:39;101567.02;;;2.28;55.73
62592;BME280;48659;41.622;2.276;2023-02-12T04:21:14;101569.46;;;2.08;55.60
62592;BME280;48659;41.622;2.276;2023-02-12T04:23:52;101570.58;;;2.14;55.16
62592;BME280;48659;41.622;2.276;2023-02-12T04:26:26;101564.97;;;2.29;55.27
62592;BME280;48659;41.622;2.276;2023-02-12T04:29:15;101567.64;;;2.16;55.32
62592;BME280;48659;41.622;2.276;2023-02-12T04:31:48;101564.49;;;2.94;54.13
62592;BME280;48659;41.622;2.276;2023-02-12T04:34:19;101574.54;;;1.71;56.55
62592;BME280;48659;41.622;2.276;2023-02-12T04:36:56;101569.65;;;1.86;55.26
62592;BME280;48659;41.622;2.276;2023-02-12T04:39:29;101568.91;;;1.12;57.53
62592;BME280;48659;41.622;2.276;2023-02-12T04:41:59;101571.64;;;1.06;59.47
62592;BME280;48659;41.622;2.276;2023-02-12T04:44:28;101570.62;;;1.51;56.95
62592;BME280;48659;41.622;2.276;2023-02-12T04:46:56;101571.91;;;1.93;56.32
62592;BME280;48659;41.622;2.276;2023-02-12T04:49:25;101571.50;;;2.10;56.05
62592;BME280;48659;41.622;2.276;2023-02-12T04:51:52;101572.75;;;2.16;56.10
62592;BME280;48659;41.622;2.276;2023-02-12T04:54:21;101566.36;;;2.19;56.07
62592;BME280;48659;41.622;2.276;2023-02-12T04:56:50;101568.07;;;2.26;55.10
62592;BME280;48659;41.622;2.276;2023-02-12T04:59:23;101566.00;;;2.60;54.27
62592;BME280;48659;41.622;2.276;2023-02-12T05:01:51;101568.73;;;2.35;54.74
62592;BME280;48659;41.622;2.276;2023-02-12T05:04:18;101571.13;;;2.17;54.35
62592;BME280;48659;41.622;2.276;2023-02-12T05:06:46;101570.13;;;2.46;53.61
62592;BME280;48659;41.622;2.276;2023-02-12T05:09:16;101570.77;;;2.93;52.77
62592;BME280;48659;41.622;2.276;2023-02-12T05:11:44;101571.71;;;1.27;55.76
62592;BME280;48659;41.622;2.276;2023-02-12T05:14:12;101562.97;;;2.30;54.23
62592;BME280;48659;41.622;2.276;2023-02-12T05:16:39;101565.59;;;2.62;54.02
62592;BME280;48659;41.622;2.276;2023-02-12T05:19:06;101570.26;;;2.21;54.75
62592;BME280;48659;41.622;2.276;2023-02-12T05:21:34;101565.88;;;2.49;54.66
62592;BME280;48659;41.622;2.276;2023-02-12T05:24:02;101564.65;;;2.02;54.65
62592;BME280;48659;41.622;2.276;2023-02-12T05:26:30;101569.67;;;1.36;55.54
62592;BME280;48659;41.622;2.276;2023-02-12T05:28:57;101573.99;;;-0.58;62.25
62592;BME280;48659;41.622;2.276;2023-02-12T05:31:25;101565.79;;;0.31;59.82
62592;BME280;48659;41.622;2.276;2023-02-12T05:33:53;101560.61;;;1.34;57.39
62592;BME280;48659;41.622;2.276;2023-02-12T05:36:22;101559.63;;;1.42;56.45
62592;BME280;48659;41.622;2.276;2023-02-12T05:38:50;101562.81;;;0.51;59.48
62592;BME280;48659;41.622;2.276;2023-02-12T05:41:20;101561.30;;;2.05;55.05
62592;BME280;48659;41.622;2.276;2023-02-12T05:43:47;101569.77;;;1.30;55.77
62592;BME280;48659;41.622;2.276;2023-02-12T05:46:16;101562.48;;;1.45;56.23
62592;BME280;48659;41.622;2.276;2023-02-12T05:48:44;101562.58;;;1.80;55.48
62592;BME280;48659;41.622;2.276;2023-02-12T05:51:14;101562.23;;;1.74;54.96
62592;BME280;48659;41.622;2.276;2023-02-12T05:53:41;101562.66;;;2.17;54.19
62592;BME280;48659;41.622;2.276;2023-02-12T05:56:12;101559.76;;;2.02;54.01
62592;BME280;48659;41.622;2.276;2023-02-12T05:58:42;101560.32;;;2.14;54.19
62592;BME280;48659;41.622;2.276;2023-02-12T06:01:11;101557.67;;;1.89;55.06
62592;BME280;48659;41.622;2.276;2023-02-12T06:03:40;101558.89;;;2.55;53.09
62592;BME280;48659;41.622;2.276;2023-02-12T06:06:08;101561.01;;;2.56;53.04
62592;BME280;48659;41.622;2.276;2023-02-12T06:08:36;101556.16;;;2.28;53.48
62592;BME280;48659;41.622;2.276;2023-02-12T06:11:07;101557.90;;;2.24;53.57
62592;BME280;48659;41.622;2.276;2023-02-12T06:13:34;101560.56;;;2.54;53.58
62592;BME280;48659;41.622;2.276;2023-02-12T06:16:03;101559.65;;;2.87;53.87
62592;BME280;48659;41.622;2.276;2023-02-12T06:18:31;101561.51;;;2.27;53.43
62592;BME280;48659;41.622;2.276;2023-02-12T06:21:02;101562.50;;;2.78;52.89
62592;BME280;48659;41.622;2.276;2023-02-12T06:23:29;101563.75;;;3.41;51.64
62592;BME280;48659;41.622;2.276;2023-02-12T06:25:57;101563.42;;;2.88;52.44
62592;BME280;48659;41.622;2.276;2023-02-12T06:28:25;101566.06;;;2.85;54.00
62592;BME280;48659;41.622;2.276;2023-02-12T06:30:52;101569.17;;;2.99;53.68
62592;BME280;48659;41.622;2.276;2023-02-12T06:33:20;101571.31;;;2.80;54.64
62592;BME280;48659;41.622;2.276;2023-02-12T06:35:47;101578.03;;;2.88;55.08
62592;BME280;48659;41.622;2.276;2023-02-12T06:38:15;101582.64;;;2.42;55.21
62592;BME280;48659;41.622;2.276;2023-02-12T06:40:42;101586.28;;;2.48;54.67
62592;BME280;48659;41.622;2.276;2023-02-12T06:43:10;101587.58;;;2.02;55.17
62592;BME280;48659;41.622;2.276;2023-02-12T06:45:37;101586.13;;;2.04;54.39
62592;BME280;48659;41.622;2.276;2023-02-12T06:48:04;101585.27;;;1.96;54.98
62592;BME280;48659;41.622;2.276;2023-02-12T06:50:32;101588.67;;;1.85;53.96
62592;BME280;48659;41.622;2.276;2023-02-12T06:52:59;101598.09;;;-0.58;60.55
62592;BME280;48659;41.622;2.276;2023-02-12T06:55:27;101599.07;;;-0.72;61.87
62592;BME280;48659;41.622;2.276;2023-02-12T06:57:55;101588.30;;;0.88;58.40
62592;BME280;48659;41.622;2.276;2023-02-12T07:00:23;101598.39;;;-1.17;64.39
62592;BME280;48659;41.622;2.276;2023-02-12T07:02:53;101602.36;;;-0.70;62.80
62592;BME280;48659;41.622;2.276;2023-02-12T07:05:20;101601.65;;;-1.09;61.79
62592;BME280;48659;41.622;2.276;2023-02-12T07:07:48;101596.56;;;1.18;58.03
62592;BME280;48659;41.622;2.276;2023-02-12T07:10:17;101598.43;;;1.14;56.45
62592;BME280;48659;41.622;2.276;2023-02-12T07:12:46;101599.00;;;1.74;55.17
62592;BME280;48659;41.622;2.276;2023-02-12T07:15:14;101594.28;;;1.64;54.90
62592;BME280;48659;41.622;2.276;2023-02-12T07:17:41;101599.05;;;1.28;56.81
62592;BME280;48659;41.622;2.276;2023-02-12T07:20:09;101603.25;;;1.42;56.10
62592;BME280;48659;41.622;2.276;2023-02-12T07:22:36;101605.04;;;1.52;56.81
62592;BME280;48659;41.622;2.276;2023-02-12T07:25:04;101602.00;;;1.57;55.74
62592;BME280;48659;41.622;2.276;2023-02-12T07:27:33;101603.93;;;1.13;56.47
62592;BME280;48659;41.622;2.276;2023-02-12T07:30:05;101600.49;;;0.88;56.28
62592;BME280;48659;41.622;2.276;2023-02-12T07:32:34;101592.39;;;1.96;54.27
62592;BME280;48659;41.622;2.276;2023-02-12T07:35:01;101598.10;;;1.63;54.83
62592;BME280;48659;41.622;2.276;2023-02-12T07:37:29;101604.63;;;2.04;54.57
62592;BME280;48659;41.622;2.276;2023-02-12T07:39:56;101605.61;;;2.01;54.91
62592;BME280;48659;41.622;2.276;2023-02-12T07:42:23;101608.47;;;2.46;54.15
62592;BME280;48659;41.622;2.276;2023-02-12T07:44:51;101611.52;;;3.08;52.35
62592;BME280;48659;41.622;2.276;2023-02-12T07:47:18;101612.68;;;2.59;52.81
62592;BME280;48659;41.622;2.276;2023-02-12T07:49:45;101612.80;;;3.14;52.95
62592;BME280;48659;41.622;2.276;2023-02-12T07:52:12;101614.79;;;2.60;54.29
62592;BME280;48659;41.622;2.276;2023-02-12T07:54:40;101616.47;;;3.16;52.87
62592;BME280;48659;41.622;2.276;2023-02-12T07:57:08;101618.65;;;2.87;52.52
62592;BME280;48659;41.622;2.276;2023-02-12T07:59:35;101623.35;;;3.71;51.48
62592;BME280;48659;41.622;2.276;2023-02-12T08:02:03;101624.25;;;3.41;52.02
62592;BME280;48659;41.622;2.276;2023-02-12T08:04:30;101627.52;;;3.67;52.73
62592;BME280;48659;41.622;2.276;2023-02-12T08:06:57;101627.22;;;4.38;51.57
62592;BME280;48659;41.622;2.276;2023-02-12T08:09:26;101625.86;;;4.46;51.04
62592;BME280;48659;41.622;2.276;2023-02-12T08:11:54;101620.18;;;4.63;49.69
62592;BME280;48659;41.622;2.276;2023-02-12T08:14:22;101628.71;;;4.08;51.07
62592;BME280;48659;41.622;2.276;2023-02-12T08:16:49;101629.13;;;4.56;50.91
62592;BME280;48659;41.622;2.276;2023-02-12T08:19:18;101634.00;;;4.49;50.39
62592;BME280;48659;41.622;2.276;2023-02-12T08:21:48;101626.58;;;4.85;49.98
62592;BME280;48659;41.622;2.276;2023-02-12T08:24:16;101628.38;;;4.80;50.43
62592;BME280;48659;41.622;2.276;2023-02-12T08:26:44;101638.74;;;4.74;51.00
62592;BME280;48659;41.622;2.276;2023-02-12T08:29:14;101640.49;;;4.33;51.85
62592;BME280;48659;41.622;2.276;2023-02-12T08:31:43;101635.62;;;4.77;51.70
62592;BME280;48659;41.622;2.276;2023-02-12T08:34:17;101634.62;;;4.67;51.25
62592;BME280;48659;41.622;2.276;2023-02-12T08:36:46;101639.24;;;5.54;49.63
62592;BME280;48659;41.622;2.276;2023-02-12T08:39:15;101635.95;;;4.85;50.43
62592;BME280;48659;41.622;2.276;2023-02-12T08:41:43;101637.53;;;5.48;49.37
62592;BME280;48659;41.622;2.276;2023-02-12T08:44:12;101637.02;;;5.53;48.88
62592;BME280;48659;41.622;2.276;2023-02-12T08:46:43;101638.80;;;5.34;51.12
62592;BME280;48659;41.622;2.276;2023-02-12T08:49:13;101640.45;;;5.37;51.55
62592;BME280;48659;41.622;2.276;2023-02-12T08:51:44;101639.71;;;5.88;49.20
62592;BME280;48659;41.622;2.276;2023-02-12T08:54:14;101639.38;;;5.40;48.93
62592;BME280;48659;41.622;2.276;2023-02-12T08:56:42;101639.17;;;5.82;48.44
62592;BME280;48659;41.622;2.276;2023-02-12T08:59:22;101639.21;;;5.65;49.57
62592;BME280;48659;41.622;2.276;2023-02-12T09:01:50;101637.88;;;6.29;49.14
62592;BME280;48659;41.622;2.276;2023-02-12T09:04:20;101638.91;;;5.83;49.67
62592;BME280;48659;41.622;2.276;2023-02-12T09:06:49;101639.00;;;6.00;49.47
62592;BME280;48659;41.622;2.276;2023-02-12T09:09:17;101634.12;;;6.89;48.36
62592;BME280;48659;41.622;2.276;2023-02-12T09:11:45;101632.18;;;6.12;48.35
62592;BME280;48659;41.622;2.276;2023-02-12T09:14:13;101634.42;;;6.29;48.71
62592;BME280;48659;41.622;2.276;2023-02-12T09:16:41;101634.77;;;6.30;49.31
62592;BME280;48659;41.622;2.276;2023-02-12T09:19:13;101634.25;;;6.18;49.70
62592;BME280;48659;41.622;2.276;2023-02-12T09:21:41;101630.82;;;6.63;48.69
62592;BME280;48659;41.622;2.276;2023-02-12T09:24:11;101627.34;;;6.30;48.01
62592;BME280;48659;41.622;2.276;2023-02-12T09:26:38;101630.27;;;6.67;48.82
62592;BME280;48659;41.622;2.276;2023-02-12T09:29:11;101633.44;;;6.83;47.96
62592;BME280;48659;41.622;2.276;2023-02-12T09:31:39;101632.93;;;6.38;48.22
62592;BME280;48659;41.622;2.276;2023-02-12T09:34:07;101632.82;;;5.93;48.45
62592;BME280;48659;41.622;2.276;2023-02-12T09:36:35;101624.90;;;7.20;47.25
62592;BME280;48659;41.622;2.276;2023-02-12T09:39:04;101625.31;;;7.55;47.13
62592;BME280;48659;41.622;2.276;2023-02-12T09:43:00;101629.82;;;8.02;46.54
62592;BME280;48659;41.622;2.276;2023-02-12T09:45:34;101632.86;;;7.77;46.14
62592;BME280;48659;41.622;2.276;2023-02-12T09:48:14;101630.30;;;7.28;46.23
62592;BME280;48659;41.622;2.276;2023-02-12T09:50:48;101633.66;;;7.36;45.85
62592;BME280;48659;41.622;2.276;2023-02-12T09:53:20;101634.10;;;8.14;45.21
62592;BME280;48659;41.622;2.276;2023-02-12T09:55:48;101630.05;;;7.60;45.61
62592;BME280;48659;41.622;2.276;2023-02-12T09:58:20;101628.12;;;7.65;45.81
62592;BME280;48659;41.622;2.276;2023-02-12T10:00:49;101626.47;;;8.13;44.57
62592;BME280;48659;41.622;2.276;2023-02-12T10:03:17;101625.11;;;8.02;44.30
62592;BME280;48659;41.622;2.276;2023-02-12T10:05:48;101624.74;;;8.05;44.11
62592;BME280;48659;41.622;2.276;2023-02-12T10:08:29;101620.18;;;7.04;46.08
62592;BME280;48659;41.622;2.276;2023-02-12T10:11:16;101616.44;;;6.83;48.55
62592;BME280;48659;41.622;2.276;2023-02-12T10:13:53;101614.20;;;7.80;46.06
62592;BME280;48659;41.622;2.276;2023-02-12T10:16:39;101614.64;;;8.23;46.47
62592;BME280;48659;41.622;2.276;2023-02-12T10:19:22;101614.80;;;8.31;45.18
62592;BME280;48659;41.622;2.276;2023-02-12T10:22:01;101605.36;;;7.00;46.10
62592;BME280;48659;41.622;2.276;2023-02-12T10:24:42;101605.88;;;8.78;44.75
62592;BME280;48659;41.622;2.276;2023-02-12T10:27:14;101608.19;;;7.89;45.27
62592;BME280;48659;41.622;2.276;2023-02-12T10:29:45;101605.34;;;9.01;43.44
62592;BME280;48659;41.622;2.276;2023-02-12T10:32:20;101603.15;;;8.97;43.51
62592;BME280;48659;41.622;2.276;2023-02-12T10:34:51;101601.53;;;9.56;41.57
62592;BME280;48659;41.622;2.276;2023-02-12T10:37:27;101602.59;;;9.23;41.97
62592;BME280;48659;41.622;2.276;2023-02-12T10:40:03;101604.04;;;9.40;42.62
62592;BME280;48659;41.622;2.276;2023-02-12T10:42:37;101608.19;;;8.24;44.24
62592;BME280;48659;41.622;2.276;2023-02-12T10:45:12;101610.60;;;7.22;45.47
62592;BME280;48659;41.622;2.276;2023-02-12T10:47:40;101608.02;;;7.86;45.31
62592;BME280;48659;41.622;2.276;2023-02-12T10:50:19;101596.76;;;9.21;44.38
62592;BME280;48659;41.622;2.276;2023-02-12T10:52:52;101592.66;;;9.42;42.89
62592;BME280;48659;41.622;2.276;2023-02-12T10:55:24;101587.58;;;9.12;42.49
62592;BME280;48659;41.622;2.276;2023-02-12T10:57:52;101587.12;;;9.71;42.68
62592;BME280;48659;41.622;2.276;2023-02-12T11:00:24;101587.37;;;9.46;42.47
62592;BME280;48659;41.622;2.276;2023-02-12T11:03:04;101589.63;;;8.05;44.77
62592;BME280;48659;41.622;2.276;2023-02-12T11:05:43;101584.89;;;7.13;46.23
62592;BME280;48659;41.622;2.276;2023-02-12T11:08:27;101586.27;;;7.53;46.09
62592;BME280;48659;41.622;2.276;2023-02-12T11:11:03;101577.77;;;8.88;43.22
62592;BME280;48659;41.622;2.276;2023-02-12T11:13:45;101574.78;;;9.40;43.83
62592;BME280;48659;41.622;2.276;2023-02-12T11:16:28;101566.57;;;10.20;41.07
62592;BME280;48659;41.622;2.276;2023-02-12T11:19:00;101570.15;;;10.51;42.99
62592;BME280;48659;41.622;2.276;2023-02-12T11:21:29;101566.37;;;9.17;42.77
62592;BME280;48659;41.622;2.276;2023-02-12T11:23:57;101566.02;;;8.71;43.47
62592;BME280;48659;41.622;2.276;2023-02-12T11:26:47;101566.77;;;7.98;43.12
62592;BME280;48659;41.622;2.276;2023-02-12T11:29:20;101555.40;;;10.72;41.09
62592;BME280;48659;41.622;2.276;2023-02-12T11:32:00;101550.93;;;10.61;41.67
62592;BME280;48659;41.622;2.276;2023-02-12T11:34:27;101549.04;;;10.90;38.41
62592;BME280;48659;41.622;2.276;2023-02-12T11:36:56;101550.79;;;11.21;38.30
62592;BME280;48659;41.622;2.276;2023-02-12T11:39:26;101546.01;;;11.17;38.94
62592;BME280;48659;41.622;2.276;2023-02-12T11:41:55;101541.77;;;10.63;40.12
62592;BME280;48659;41.622;2.276;2023-02-12T11:44:26;101536.77;;;10.03;38.93
62592;BME280;48659;41.622;2.276;2023-02-12T11:46:56;101537.74;;;11.53;41.08
62592;BME280;48659;41.622;2.276;2023-02-12T11:49:28;101526.99;;;11.95;35.94
62592;BME280;48659;41.622;2.276;2023-02-12T11:52:00;101522.62;;;12.14;35.84
62592;BME280;48659;41.622;2.276;2023-02-12T11:54:31;101514.77;;;12.63;34.38
62592;BME280;48659;41.622;2.276;2023-02-12T11:57:00;101506.81;;;12.50;34.55
62592;BME280;48659;41.622;2.276;2023-02-12T11:59:33;101502.68;;;12.97;33.48
62592;BME280;48659;41.622;2.276;2023-02-12T12:02:14;101506.83;;;12.32;34.93
62592;BME280;48659;41.622;2.276;2023-02-12T12:04:46;101498.45;;;11.94;34.69
62592;BME280;48659;41.622;2.276;2023-02-12T12:07:19;101496.49;;;11.42;36.26
62592;BME280;48659;41.622;2.276;2023-02-12T12:09:52;101493.25;;;11.62;35.97
62592;BME280;48659;41.622;2.276;2023-02-12T12:12:31;101491.41;;;10.48;34.29
62592;BME280;48659;41.622;2.276;2023-02-12T12:15:18;101491.32;;;12.10;32.88
62592;BME280;48659;41.622;2.276;2023-02-12T12:17:52;101494.51;;;12.23;32.28
62592;BME280;48659;41.622;2.276;2023-02-12T12:20:26;101493.84;;;11.70;30.85
62592;BME280;48659;41.622;2.276;2023-02-12T12:23:01;101491.25;;;11.74;29.62
62592;BME280;48659;41.622;2.276;2023-02-12T12:25:34;101484.35;;;13.21;28.86
62592;BME280;48659;41.622;2.276;2023-02-12T12:28:26;101483.60;;;13.22;30.07
62592;BME280;48659;41.622;2.276;2023-02-12T12:31:02;101479.59;;;13.37;27.33
62592;BME280;48659;41.622;2.276;2023-02-12T12:33:45;101479.00;;;13.03;27.28
62592;BME280;48659;41.622;2.276;2023-02-12T12:36:43;101475.35;;;13.42;28.17
62592;BME280;48659;41.622;2.276;2023-02-12T12:39:17;101473.10;;;12.31;29.27
62592;BME280;48659;41.622;2.276;2023-02-12T12:42:40;101470.61;;;12.49;28.56
62592;BME280;48659;41.622;2.276;2023-02-12T12:45:25;101464.63;;;13.01;27.34
62592;BME280;48659;41.622;2.276;2023-02-12T12:48:12;101461.01;;;11.99;28.20
62592;BME280;48659;41.622;2.276;2023-02-12T12:50:55;101455.83;;;12.31;26.10
62592;BME280;48659;41.622;2.276;2023-02-12T12:53:36;101456.54;;;12.83;27.05
62592;BME280;48659;41.622;2.276;2023-02-12T12:56:16;101457.82;;;12.98;26.12
62592;BME280;48659;41.622;2.276;2023-02-12T12:58:59;101451.47;;;12.39;27.66
62592;BME280;48659;41.622;2.276;2023-02-12T13:01:50;101449.17;;;13.25;26.82
62592;BME280;48659;41.622;2.276;2023-02-12T13:04:51;101447.07;;;13.32;23.40
62592;BME280;48659;41.622;2.276;2023-02-12T13:07:36;101440.42;;;13.58;23.56
62592;BME280;48659;41.622;2.276;2023-02-12T13:10:22;101430.26;;;13.18;22.32
62592;BME280;48659;41.622;2.276;2023-02-12T13:13:02;101435.89;;;11.31;23.33
62592;BME280;48659;41.622;2.276;2023-02-12T13:15:42;101431.90;;;12.68;23.60
62592;BME280;48659;41.622;2.276;2023-02-12T13:18:21;101435.93;;;11.70;24.70
62592;BME280;48659;41.622;2.276;2023-02-12T13:20:56;101434.32;;;11.64;26.53
62592;BME280;48659;41.622;2.276;2023-02-12T13:23:34;101441.18;;;10.80;27.23